TimeCDT,TemperatureF,Dew PointF,Humidity,Sea Level PressureIn,VisibilityMPH,Wind Direction,Wind SpeedMPH,Gust SpeedMPH,PrecipitationIn,Events,Conditions,WindDirDegrees,DateUTC
12:16 AM,48.2,44.6,87,29.96,10.0,West,5.8,-,N/A,,Overcast,280,2013-10-17 05:16:00
12:52 AM,48.0,43.0,83,29.96,10.0,WSW,5.8,-,N/A,,Overcast,250,2013-10-17 05:52:00
1:52 AM,48.0,43.0,83,29.96,10.0,WSW,4.6,-,N/A,,Overcast,250,2013-10-17 06:52:00
2:52 AM,46.9,43.0,86,29.95,10.0,WSW,4.6,-,N/A,,Overcast,240,2013-10-17 07:52:00
3:25 AM,46.4,42.8,87,29.93,10.0,WSW,4.6,-,N/A,,Overcast,250,2013-10-17 08:25:00
3:52 AM,46.9,43.0,86,29.94,10.0,WSW,5.8,-,N/A,,Overcast,250,2013-10-17 08:52:00
4:52 AM,46.9,43.0,86,29.91,10.0,West,4.6,-,N/A,,Overcast,270,2013-10-17 09:52:00
5:47 AM,46.4,42.8,87,29.91,10.0,WSW,4.6,-,N/A,,Overcast,250,2013-10-17 10:47:00
5:52 AM,46.9,43.0,86,29.92,10.0,WSW,5.8,-,N/A,,Overcast,250,2013-10-17 10:52:00
5:59 AM,46.4,42.8,87,29.91,10.0,WSW,5.8,-,N/A,,Overcast,240,2013-10-17 10:59:00
6:52 AM,46.9,44.1,90,29.92,8.0,WSW,5.8,-,0.00,Rain,Light Rain,250,2013-10-17 11:52:00
7:52 AM,46.9,44.1,90,29.92,8.0,WSW,4.6,-,0.00,,Overcast,240,2013-10-17 12:52:00
8:52 AM,46.9,44.1,90,29.93,10.0,WSW,6.9,-,N/A,,Scattered Clouds,240,2013-10-17 13:52:00
9:52 AM,48.9,42.1,77,29.92,10.0,WSW,9.2,-,N/A,,Clear,240,2013-10-17 14:52:00
10:52 AM,52.0,39.9,63,29.92,10.0,West,15.0,-,N/A,,Clear,270,2013-10-17 15:52:00
11:52 AM,54.0,39.0,57,29.91,10.0,West,10.4,19.6,N/A,,Clear,260,2013-10-17 16:52:00
12:52 PM,55.9,36.0,47,29.89,10.0,WSW,12.7,-,N/A,,Scattered Clouds,250,2013-10-17 17:52:00
1:52 PM,59.0,34.0,39,29.87,10.0,West,10.4,-,N/A,,Scattered Clouds,280,2013-10-17 18:52:00
2:52 PM,61.0,32.0,34,29.86,10.0,West,13.8,23.0,N/A,,Partly Cloudy,260,2013-10-17 19:52:00
3:52 PM,61.0,30.9,32,29.86,10.0,West,15.0,23.0,N/A,,Partly Cloudy,270,2013-10-17 20:52:00
4:52 PM,60.1,30.0,32,29.85,10.0,West,10.4,-,N/A,,Clear,280,2013-10-17 21:52:00
5:52 PM,57.0,32.0,39,29.86,10.0,NW,3.5,-,N/A,,Clear,310,2013-10-17 22:52:00
6:52 PM,46.0,34.0,63,29.86,10.0,Calm,Calm,-,N/A,,Clear,0,2013-10-17 23:52:00
7:52 PM,44.1,34.0,68,29.87,10.0,SSE,3.5,-,N/A,,Clear,150,2013-10-18 00:52:00
8:52 PM,43.0,34.0,71,29.87,10.0,SSE,4.6,-,N/A,,Clear,160,2013-10-18 01:52:00
9:52 PM,44.1,36.0,73,29.88,10.0,South,4.6,-,N/A,,Overcast,170,2013-10-18 02:52:00
10:52 PM,42.1,35.1,76,29.87,10.0,Calm,Calm,-,N/A,,Clear,0,2013-10-18 03:52:00
11:52 PM,41.0,34.0,76,29.87,10.0,SSW,3.5,-,N/A,,Clear,210,2013-10-18 04:52:00